sensor_id;sensor_type;location;lat;lon;timestamp;P1;durP1;ratioP1;P2;durP2;ratioP2
9106;SDS011;4589;48.690;8.952;2023-03-31T00:01:24;3.33;;;1.83;;
9106;SDS011;4589;48.690;8.952;2023-03-31T00:03:50;5.60;;;2.60;;
9106;SDS011;4589;48.690;8.952;2023-03-31T00:06:25;4.27;;;2.63;;
9106;SDS011;4589;48.690;8.952;2023-03-31T00:08:52;4.87;;;2.23;;
9106;SDS011;4589;48.690;8.952;2023-03-31T00:11:18;4.80;;;2.67;;
9106;SDS011;4589;48.690;8.952;2023-03-31T00:13:44;3.83;;;2.33;;
9106;SDS011;4589;48.690;8.952;2023-03-31T00:16:10;3.90;;;2.60;;
9106;SDS011;4589;48.690;8.952;2023-03-31T00:18:36;4.70;;;2.33;;
9106;SDS011;4589;48.690;8.952;2023-03-31T00:21:08;4.70;;;2.70;;
9106;SDS011;4589;48.690;8.952;2023-03-31T00:23:48;4.27;;;2.23;;
9106;SDS011;4589;48.690;8.952;2023-03-31T00:26:14;5.63;;;2.67;;
9106;SDS011;4589;48.690;8.952;2023-03-31T00:28:40;4.17;;;2.43;;
9106;SDS011;4589;48.690;8.952;2023-03-31T00:31:06;7.83;;;2.70;;
9106;SDS011;4589;48.690;8.952;2023-03-31T00:33:32;4.90;;;2.63;;
9106;SDS011;4589;48.690;8.952;2023-03-31T00:35:58;10.30;;;3.17;;
9106;SDS011;4589;48.690;8.952;2023-03-31T00:38:30;7.87;;;3.27;;
9106;SDS011;4589;48.690;8.952;2023-03-31T00:40:56;8.07;;;3.00;;
9106;SDS011;4589;48.690;8.952;2023-03-31T00:43:26;9.13;;;3.83;;
9106;SDS011;4589;48.690;8.952;2023-03-31T00:45:57;5.53;;;2.97;;
9106;SDS011;4589;48.690;8.952;2023-03-31T00:48:28;3.03;;;2.20;;
9106;SDS011;4589;48.690;8.952;2023-03-31T00:50:55;7.13;;;2.93;;
9106;SDS011;4589;48.690;8.952;2023-03-31T00:53:23;9.83;;;2.67;;
9106;SDS011;4589;48.690;8.952;2023-03-31T00:55:53;6.40;;;2.80;;
9106;SDS011;4589;48.690;8.952;2023-03-31T00:58:23;12.57;;;2.97;;
9106;SDS011;4589;48.690;8.952;2023-03-31T01:00:52;4.93;;;2.70;;
9106;SDS011;4589;48.690;8.952;2023-03-31T01:03:19;8.27;;;3.30;;
9106;SDS011;4589;48.690;8.952;2023-03-31T01:05:53;4.93;;;2.97;;
9106;SDS011;4589;48.690;8.952;2023-03-31T01:08:22;4.00;;;2.40;;
9106;SDS011;4589;48.690;8.952;2023-03-31T01:10:52;5.87;;;2.60;;
9106;SDS011;4589;48.690;8.952;2023-03-31T01:13:21;5.17;;;2.97;;
9106;SDS011;4589;48.690;8.952;2023-03-31T01:15:48;4.43;;;2.07;;
9106;SDS011;4589;48.690;8.952;2023-03-31T01:18:14;3.40;;;2.43;;
9106;SDS011;4589;48.690;8.952;2023-03-31T01:23:57;10.80;;;2.80;;
9106;SDS011;4589;48.690;8.952;2023-03-31T01:39:17;5.77;;;2.60;;
9106;SDS011;4589;48.690;8.952;2023-03-31T01:44:45;6.80;;;2.43;;
9106;SDS011;4589;48.690;8.952;2023-03-31T01:47:31;4.20;;;2.40;;
9106;SDS011;4589;48.690;8.952;2023-03-31T01:50:17;7.57;;;2.30;;
9106;SDS011;4589;48.690;8.952;2023-03-31T01:52:52;11.53;;;3.00;;
9106;SDS011;4589;48.690;8.952;2023-03-31T01:55:23;6.63;;;2.10;;
9106;SDS011;4589;48.690;8.952;2023-03-31T01:57:54;15.73;;;2.87;;
9106;SDS011;4589;48.690;8.952;2023-03-31T02:00:27;6.27;;;2.80;;
9106;SDS011;4589;48.690;8.952;2023-03-31T02:02:58;8.03;;;2.20;;
9106;SDS011;4589;48.690;8.952;2023-03-31T02:05:31;4.03;;;2.57;;
9106;SDS011;4589;48.690;8.952;2023-03-31T02:08:00;5.40;;;2.63;;
9106;SDS011;4589;48.690;8.952;2023-03-31T02:10:39;3.80;;;2.30;;
9106;SDS011;4589;48.690;8.952;2023-03-31T02:13:07;6.97;;;2.30;;
9106;SDS011;4589;48.690;8.952;2023-03-31T02:15:35;5.30;;;2.70;;
9106;SDS011;4589;48.690;8.952;2023-03-31T02:18:04;4.23;;;2.60;;
9106;SDS011;4589;48.690;8.952;2023-03-31T02:20:35;4.40;;;3.00;;
9106;SDS011;4589;48.690;8.952;2023-03-31T02:23:03;7.67;;;2.43;;
9106;SDS011;4589;48.690;8.952;2023-03-31T02:25:34;3.70;;;2.73;;
9106;SDS011;4589;48.690;8.952;2023-03-31T02:28:02;6.83;;;2.57;;
9106;SDS011;4589;48.690;8.952;2023-03-31T02:30:35;8.33;;;2.30;;
9106;SDS011;4589;48.690;8.952;2023-03-31T02:33:07;8.47;;;2.90;;
9106;SDS011;4589;48.690;8.952;2023-03-31T02:35:33;8.27;;;3.97;;
9106;SDS011;4589;48.690;8.952;2023-03-31T02:38:00;5.37;;;2.83;;
9106;SDS011;4589;48.690;8.952;2023-03-31T02:40:27;8.30;;;2.40;;
9106;SDS011;4589;48.690;8.952;2023-03-31T02:42:54;5.53;;;2.50;;
9106;SDS011;4589;48.690;8.952;2023-03-31T02:48:04;4.20;;;2.73;;
9106;SDS011;4589;48.690;8.952;2023-03-31T02:54:02;4.40;;;2.73;;
9106;SDS011;4589;48.690;8.952;2023-03-31T02:56:18;3.37;;;2.73;;
9106;SDS011;4589;48.690;8.952;2023-03-31T02:58:50;6.63;;;3.63;;
9106;SDS011;4589;48.690;8.952;2023-03-31T03:04:34;7.33;;;3.10;;
9106;SDS011;4589;48.690;8.952;2023-03-31T03:12:06;5.23;;;3.20;;
9106;SDS011;4589;48.690;8.952;2023-03-31T03:17:14;9.63;;;3.53;;
9106;SDS011;4589;48.690;8.952;2023-03-31T03:19:42;8.00;;;2.80;;
9106;SDS011;4589;48.690;8.952;2023-03-31T03:22:08;6.13;;;3.10;;
9106;SDS011;4589;48.690;8.952;2023-03-31T03:24:34;6.80;;;3.63;;
9106;SDS011;4589;48.690;8.952;2023-03-31T03:27:00;7.23;;;3.60;;
9106;SDS011;4589;48.690;8.952;2023-03-31T03:29:26;5.13;;;3.37;;
9106;SDS011;4589;48.690;8.952;2023-03-31T03:31:52;6.57;;;4.30;;
9106;SDS011;4589;48.690;8.952;2023-03-31T03:34:18;10.00;;;3.37;;
9106;SDS011;4589;48.690;8.952;2023-03-31T03:36:45;6.23;;;4.43;;
9106;SDS011;4589;48.690;8.952;2023-03-31T03:39:11;13.93;;;4.00;;
9106;SDS011;4589;48.690;8.952;2023-03-31T03:41:37;8.60;;;3.93;;
9106;SDS011;4589;48.690;8.952;2023-03-31T03:44:03;7.20;;;3.27;;
9106;SDS011;4589;48.690;8.952;2023-03-31T03:46:29;5.00;;;3.10;;
9106;SDS011;4589;48.690;8.952;2023-03-31T03:48:56;4.30;;;3.30;;
9106;SDS011;4589;48.690;8.952;2023-03-31T03:51:22;5.37;;;3.40;;
9106;SDS011;4589;48.690;8.952;2023-03-31T03:53:48;7.00;;;3.77;;
9106;SDS011;4589;48.690;8.952;2023-03-31T03:56:14;11.00;;;3.90;;
9106;SDS011;4589;48.690;8.952;2023-03-31T03:58:40;6.73;;;3.90;;
9106;SDS011;4589;48.690;8.952;2023-03-31T04:01:06;8.97;;;3.90;;
9106;SDS011;4589;48.690;8.952;2023-03-31T04:03:32;10.70;;;4.07;;
9106;SDS011;4589;48.690;8.952;2023-03-31T04:05:58;6.10;;;3.93;;
9106;SDS011;4589;48.690;8.952;2023-03-31T04:08:24;7.27;;;4.73;;
9106;SDS011;4589;48.690;8.952;2023-03-31T04:10:50;5.30;;;3.80;;
9106;SDS011;4589;48.690;8.952;2023-03-31T04:13:16;11.47;;;4.17;;
9106;SDS011;4589;48.690;8.952;2023-03-31T04:15:42;8.40;;;4.23;;
9106;SDS011;4589;48.690;8.952;2023-03-31T04:18:09;9.80;;;4.47;;
9106;SDS011;4589;48.690;8.952;2023-03-31T04:20:47;9.97;;;4.57;;
9106;SDS011;4589;48.690;8.952;2023-03-31T04:23:18;11.30;;;4.47;;
9106;SDS011;4589;48.690;8.952;2023-03-31T04:25:45;5.43;;;4.40;;
9106;SDS011;4589;48.690;8.952;2023-03-31T04:28:13;10.50;;;4.40;;
9106;SDS011;4589;48.690;8.952;2023-03-31T04:30:40;6.60;;;4.07;;
9106;SDS011;4589;48.690;8.952;2023-03-31T04:33:06;12.03;;;4.13;;
9106;SDS011;4589;48.690;8.952;2023-03-31T04:35:32;11.90;;;4.60;;
9106;SDS011;4589;48.690;8.952;2023-03-31T04:38:14;10.63;;;5.10;;
9106;SDS011;4589;48.690;8.952;2023-03-31T04:40:43;12.30;;;4.63;;
9106;SDS011;4589;48.690;8.952;2023-03-31T04:43:09;4.73;;;3.80;;
9106;SDS011;4589;48.690;8.952;2023-03-31T04:45:35;6.77;;;4.00;;
9106;SDS011;4589;48.690;8.952;2023-03-31T04:48:01;9.47;;;4.53;;
9106;SDS011;4589;48.690;8.952;2023-03-31T04:50:27;8.77;;;4.50;;
9106;SDS011;4589;48.690;8.952;2023-03-31T04:52:53;6.70;;;4.60;;
9106;SDS011;4589;48.690;8.952;2023-03-31T04:55:19;12.00;;;5.40;;
9106;SDS011;4589;48.690;8.952;2023-03-31T04:57:45;10.23;;;5.47;;
9106;SDS011;4589;48.690;8.952;2023-03-31T05:00:11;14.67;;;4.67;;
9106;SDS011;4589;48.690;8.952;2023-03-31T05:02:37;7.33;;;4.40;;
9106;SDS011;4589;48.690;8.952;2023-03-31T05:05:03;9.57;;;5.40;;
9106;SDS011;4589;48.690;8.952;2023-03-31T05:07:30;10.37;;;5.20;;
9106;SDS011;4589;48.690;8.952;2023-03-31T05:09:55;10.23;;;6.17;;
9106;SDS011;4589;48.690;8.952;2023-03-31T05:12:21;9.37;;;5.67;;
9106;SDS011;4589;48.690;8.952;2023-03-31T05:14:48;13.07;;;5.50;;
9106;SDS011;4589;48.690;8.952;2023-03-31T05:17:14;10.40;;;6.20;;
9106;SDS011;4589;48.690;8.952;2023-03-31T05:19:41;15.77;;;5.50;;
9106;SDS011;4589;48.690;8.952;2023-03-31T05:22:07;11.00;;;5.47;;
9106;SDS011;4589;48.690;8.952;2023-03-31T05:24:33;11.50;;;5.67;;
9106;SDS011;4589;48.690;8.952;2023-03-31T05:26:59;11.63;;;4.70;;
9106;SDS011;4589;48.690;8.952;2023-03-31T05:29:25;12.07;;;6.67;;
9106;SDS011;4589;48.690;8.952;2023-03-31T05:31:51;9.30;;;5.77;;
9106;SDS011;4589;48.690;8.952;2023-03-31T05:34:18;12.10;;;6.10;;
9106;SDS011;4589;48.690;8.952;2023-03-31T05:36:44;8.03;;;5.10;;
9106;SDS011;4589;48.690;8.952;2023-03-31T05:39:12;19.40;;;6.03;;
9106;SDS011;4589;48.690;8.952;2023-03-31T05:41:38;10.20;;;6.47;;
9106;SDS011;4589;48.690;8.952;2023-03-31T05:44:04;10.17;;;6.47;;
9106;SDS011;4589;48.690;8.952;2023-03-31T05:46:30;10.23;;;6.63;;
9106;SDS011;4589;48.690;8.952;2023-03-31T05:48:56;9.17;;;6.13;;
9106;SDS011;4589;48.690;8.952;2023-03-31T05:51:22;12.33;;;6.67;;
9106;SDS011;4589;48.690;8.952;2023-03-31T05:53:49;13.90;;;6.50;;
9106;SDS011;4589;48.690;8.952;2023-03-31T05:56:15;14.37;;;6.70;;
9106;SDS011;4589;48.690;8.952;2023-03-31T05:58:41;16.67;;;7.40;;
9106;SDS011;4589;48.690;8.952;2023-03-31T06:01:11;14.67;;;7.17;;
9106;SDS011;4589;48.690;8.952;2023-03-31T06:03:39;11.50;;;7.33;;
9106;SDS011;4589;48.690;8.952;2023-03-31T06:06:05;11.50;;;7.37;;
9106;SDS011;4589;48.690;8.952;2023-03-31T06:08:32;13.80;;;7.70;;
9106;SDS011;4589;48.690;8.952;2023-03-31T06:10:58;16.90;;;8.10;;
9106;SDS011;4589;48.690;8.952;2023-03-31T06:13:24;16.30;;;7.87;;
9106;SDS011;4589;48.690;8.952;2023-03-31T06:15:54;13.17;;;7.93;;
9106;SDS011;4589;48.690;8.952;2023-03-31T06:18:21;11.70;;;7.60;;
9106;SDS011;4589;48.690;8.952;2023-03-31T06:20:47;18.63;;;8.10;;
9106;SDS011;4589;48.690;8.952;2023-03-31T06:23:13;18.10;;;8.60;;
9106;SDS011;4589;48.690;8.952;2023-03-31T06:25:39;15.47;;;8.00;;
9106;SDS011;4589;48.690;8.952;2023-03-31T06:28:05;22.90;;;7.83;;
9106;SDS011;4589;48.690;8.952;2023-03-31T06:30:31;16.37;;;8.97;;
9106;SDS011;4589;48.690;8.952;2023-03-31T06:32:57;22.60;;;8.43;;
9106;SDS011;4589;48.690;8.952;2023-03-31T06:35:23;18.90;;;7.57;;
9106;SDS011;4589;48.690;8.952;2023-03-31T06:37:50;17.73;;;8.70;;
9106;SDS011;4589;48.690;8.952;2023-03-31T06:40:16;12.33;;;7.30;;
9106;SDS011;4589;48.690;8.952;2023-03-31T06:42:42;14.00;;;8.20;;
9106;SDS011;4589;48.690;8.952;2023-03-31T06:45:08;17.40;;;8.60;;
9106;SDS011;4589;48.690;8.952;2023-03-31T06:47:34;15.87;;;9.00;;
9106;SDS011;4589;48.690;8.952;2023-03-31T06:50:05;15.90;;;9.90;;
9106;SDS011;4589;48.690;8.952;2023-03-31T06:52:32;11.37;;;6.53;;
9106;SDS011;4589;48.690;8.952;2023-03-31T06:54:58;15.43;;;7.43;;
9106;SDS011;4589;48.690;8.952;2023-03-31T06:57:25;10.63;;;6.70;;
9106;SDS011;4589;48.690;8.952;2023-03-31T06:59:51;13.13;;;7.70;;
9106;SDS011;4589;48.690;8.952;2023-03-31T07:02:17;11.60;;;6.17;;
9106;SDS011;4589;48.690;8.952;2023-03-31T07:04:43;8.67;;;6.60;;
9106;SDS011;4589;48.690;8.952;2023-03-31T07:07:09;5.27;;;4.60;;
9106;SDS011;4589;48.690;8.952;2023-03-31T07:09:35;7.90;;;4.40;;
9106;SDS011;4589;48.690;8.952;2023-03-31T07:12:01;4.87;;;4.10;;
9106;SDS011;4589;48.690;8.952;2023-03-31T07:14:29;5.10;;;3.97;;
9106;SDS011;4589;48.690;8.952;2023-03-31T07:16:55;3.83;;;2.97;;
9106;SDS011;4589;48.690;8.952;2023-03-31T07:19:21;5.47;;;3.97;;
9106;SDS011;4589;48.690;8.952;2023-03-31T07:21:47;2.87;;;2.60;;
9106;SDS011;4589;48.690;8.952;2023-03-31T07:24:13;2.57;;;2.37;;
9106;SDS011;4589;48.690;8.952;2023-03-31T07:26:39;7.00;;;3.50;;
9106;SDS011;4589;48.690;8.952;2023-03-31T07:29:05;3.70;;;3.07;;
9106;SDS011;4589;48.690;8.952;2023-03-31T07:31:31;5.40;;;3.00;;
9106;SDS011;4589;48.690;8.952;2023-03-31T07:33:57;5.90;;;3.07;;
9106;SDS011;4589;48.690;8.952;2023-03-31T07:36:23;3.07;;;2.30;;
9106;SDS011;4589;48.690;8.952;2023-03-31T07:38:49;3.20;;;2.37;;
9106;SDS011;4589;48.690;8.952;2023-03-31T07:41:17;3.37;;;2.00;;
9106;SDS011;4589;48.690;8.952;2023-03-31T07:43:44;3.47;;;1.90;;
9106;SDS011;4589;48.690;8.952;2023-03-31T07:46:14;6.23;;;2.23;;
9106;SDS011;4589;48.690;8.952;2023-03-31T07:48:41;10.60;;;2.00;;
9106;SDS011;4589;48.690;8.952;2023-03-31T07:51:08;2.87;;;1.80;;
9106;SDS011;4589;48.690;8.952;2023-03-31T07:53:34;3.60;;;2.10;;
9106;SDS011;4589;48.690;8.952;2023-03-31T07:56:00;1.97;;;1.73;;
9106;SDS011;4589;48.690;8.952;2023-03-31T07:58:26;2.00;;;1.27;;
9106;SDS011;4589;48.690;8.952;2023-03-31T08:00:53;2.10;;;1.50;;
9106;SDS011;4589;48.690;8.952;2023-03-31T08:03:18;2.97;;;1.30;;
9106;SDS011;4589;48.690;8.952;2023-03-31T08:05:44;1.97;;;1.80;;
9106;SDS011;4589;48.690;8.952;2023-03-31T08:08:10;1.67;;;1.57;;
9106;SDS011;4589;48.690;8.952;2023-03-31T08:10:36;1.47;;;1.33;;
9106;SDS011;4589;48.690;8.952;2023-03-31T08:13:02;2.93;;;1.57;;
9106;SDS011;4589;48.690;8.952;2023-03-31T08:15:28;2.67;;;1.50;;
9106;SDS011;4589;48.690;8.952;2023-03-31T08:17:54;2.40;;;1.70;;
9106;SDS011;4589;48.690;8.952;2023-03-31T08:20:20;2.50;;;1.40;;
9106;SDS011;4589;48.690;8.952;2023-03-31T08:22:46;3.43;;;1.97;;
9106;SDS011;4589;48.690;8.952;2023-03-31T08:25:12;2.60;;;1.50;;
9106;SDS011;4589;48.690;8.952;2023-03-31T08:27:39;1.97;;;1.40;;
9106;SDS011;4589;48.690;8.952;2023-03-31T08:30:06;2.83;;;1.50;;
9106;SDS011;4589;48.690;8.952;2023-03-31T08:32:33;2.53;;;1.63;;
9106;SDS011;4589;48.690;8.952;2023-03-31T08:35:00;2.70;;;1.80;;
9106;SDS011;4589;48.690;8.952;2023-03-31T08:37:26;2.37;;;1.80;;
9106;SDS011;4589;48.690;8.952;2023-03-31T08:39:52;2.43;;;1.80;;
9106;SDS011;4589;48.690;8.952;2023-03-31T08:42:20;5.03;;;2.47;;
9106;SDS011;4589;48.690;8.952;2023-03-31T08:45:10;2.67;;;1.67;;
9106;SDS011;4589;48.690;8.952;2023-03-31T08:47:45;2.10;;;1.40;;
9106;SDS011;4589;48.690;8.952;2023-03-31T08:50:16;4.47;;;1.70;;
9106;SDS011;4589;48.690;8.952;2023-03-31T08:52:54;2.27;;;1.30;;
9106;SDS011;4589;48.690;8.952;2023-03-31T08:55:47;2.53;;;1.40;;
9106;SDS011;4589;48.690;8.952;2023-03-31T09:00:55;2.30;;;1.30;;
9106;SDS011;4589;48.690;8.952;2023-03-31T09:06:17;1.40;;;1.30;;
9106;SDS011;4589;48.690;8.952;2023-03-31T09:08:48;3.30;;;1.30;;
9106;SDS011;4589;48.690;8.952;2023-03-31T09:11:21;1.83;;;1.13;;
9106;SDS011;4589;48.690;8.952;2023-03-31T09:19:37;2.97;;;1.40;;
9106;SDS011;4589;48.690;8.952;2023-03-31T09:22:17;2.77;;;1.37;;
9106;SDS011;4589;48.690;8.952;2023-03-31T09:24:58;2.30;;;1.50;;
9106;SDS011;4589;48.690;8.952;2023-03-31T09:27:30;3.93;;;1.50;;
9106;SDS011;4589;48.690;8.952;2023-03-31T09:30:00;1.87;;;1.20;;
9106;SDS011;4589;48.690;8.952;2023-03-31T09:32:28;3.00;;;1.37;;
9106;SDS011;4589;48.690;8.952;2023-03-31T09:34:56;2.43;;;1.47;;
9106;SDS011;4589;48.690;8.952;2023-03-31T09:37:26;2.13;;;1.10;;
9106;SDS011;4589;48.690;8.952;2023-03-31T09:40:01;3.23;;;1.57;;
9106;SDS011;4589;48.690;8.952;2023-03-31T09:42:32;2.50;;;1.57;;
9106;SDS011;4589;48.690;8.952;2023-03-31T09:44:59;3.07;;;1.90;;
9106;SDS011;4589;48.690;8.952;2023-03-31T09:50:02;4.43;;;1.63;;
9106;SDS011;4589;48.690;8.952;2023-03-31T09:52:30;5.20;;;1.40;;
9106;SDS011;4589;48.690;8.952;2023-03-31T09:55:03;4.70;;;2.10;;
9106;SDS011;4589;48.690;8.952;2023-03-31T09:57:39;2.23;;;1.60;;
9106;SDS011;4589;48.690;8.952;2023-03-31T10:02:49;5.60;;;1.70;;
9106;SDS011;4589;48.690;8.952;2023-03-31T10:05:27;3.90;;;2.00;;
9106;SDS011;4589;48.690;8.952;2023-03-31T10:10:44;9.13;;;1.50;;
9106;SDS011;4589;48.690;8.952;2023-03-31T10:13:15;6.93;;;2.47;;
9106;SDS011;4589;48.690;8.952;2023-03-31T10:15:46;4.67;;;1.60;;
9106;SDS011;4589;48.690;8.952;2023-03-31T10:18:13;7.63;;;2.10;;
9106;SDS011;4589;48.690;8.952;2023-03-31T10:20:44;5.00;;;2.10;;
9106;SDS011;4589;48.690;8.952;2023-03-31T10:23:15;6.10;;;1.97;;
9106;SDS011;4589;48.690;8.952;2023-03-31T10:25:45;4.17;;;1.80;;
9106;SDS011;4589;48.690;8.952;2023-03-31T10:28:11;3.30;;;1.70;;
9106;SDS011;4589;48.690;8.952;2023-03-31T10:30:41;6.43;;;2.10;;
9106;SDS011;4589;48.690;8.952;2023-03-31T10:33:14;4.53;;;1.80;;
9106;SDS011;4589;48.690;8.952;2023-03-31T10:35:49;7.30;;;1.90;;
9106;SDS011;4589;48.690;8.952;2023-03-31T10:38:43;2.83;;;1.67;;
9106;SDS011;4589;48.690;8.952;2023-03-31T10:41:09;4.77;;;1.57;;
9106;SDS011;4589;48.690;8.952;2023-03-31T10:43:36;6.03;;;2.20;;
9106;SDS011;4589;48.690;8.952;2023-03-31T10:46:04;4.97;;;1.83;;
9106;SDS011;4589;48.690;8.952;2023-03-31T10:48:31;5.90;;;2.07;;
9106;SDS011;4589;48.690;8.952;2023-03-31T10:51:24;6.77;;;1.80;;
9106;SDS011;4589;48.690;8.952;2023-03-31T10:53:54;7.90;;;1.77;;
9106;SDS011;4589;48.690;8.952;2023-03-31T10:56:33;3.10;;;1.60;;
9106;SDS011;4589;48.690;8.952;2023-03-31T11:23:31;1.90;;;1.20;;
9106;SDS011;4589;48.690;8.952;2023-03-31T11:31:12;4.50;;;0.80;;
9106;SDS011;4589;48.690;8.952;2023-03-31T11:41:32;6.63;;;1.03;;
9106;SDS011;4589;48.690;8.952;2023-03-31T11:44:01;1.97;;;0.90;;
9106;SDS011;4589;48.690;8.952;2023-03-31T11:46:38;1.17;;;0.80;;
9106;SDS011;4589;48.690;8.952;2023-03-31T11:52:23;1.63;;;1.00;;
9106;SDS011;4589;48.690;8.952;2023-03-31T11:54:53;2.30;;;0.90;;
9106;SDS011;4589;48.690;8.952;2023-03-31T11:59:55;3.40;;;1.10;;
9106;SDS011;4589;48.690;8.952;2023-03-31T12:05:10;1.00;;;0.80;;
9106;SDS011;4589;48.690;8.952;2023-03-31T12:07:42;3.27;;;0.90;;
9106;SDS011;4589;48.690;8.952;2023-03-31T12:10:17;4.07;;;1.30;;
9106;SDS011;4589;48.690;8.952;2023-03-31T12:12:45;1.73;;;0.80;;
9106;SDS011;4589;48.690;8.952;2023-03-31T12:15:23;2.53;;;0.90;;
9106;SDS011;4589;48.690;8.952;2023-03-31T12:17:59;1.30;;;0.77;;
9106;SDS011;4589;48.690;8.952;2023-03-31T12:20:49;1.53;;;0.90;;
9106;SDS011;4589;48.690;8.952;2023-03-31T12:23:26;3.23;;;1.10;;
9106;SDS011;4589;48.690;8.952;2023-03-31T12:28:39;1.90;;;0.97;;
9106;SDS011;4589;48.690;8.952;2023-03-31T12:31:07;3.43;;;1.03;;
9106;SDS011;4589;48.690;8.952;2023-03-31T12:33:41;1.30;;;1.10;;
9106;SDS011;4589;48.690;8.952;2023-03-31T12:44:20;2.30;;;1.17;;
9106;SDS011;4589;48.690;8.952;2023-03-31T12:59:39;4.03;;;1.30;;
9106;SDS011;4589;48.690;8.952;2023-03-31T13:04:35;9.70;;;2.10;;
9106;SDS011;4589;48.690;8.952;2023-03-31T13:07:02;3.00;;;1.33;;
9106;SDS011;4589;48.690;8.952;2023-03-31T13:11:57;11.77;;;3.67;;
9106;SDS011;4589;48.690;8.952;2023-03-31T13:14:23;4.00;;;1.47;;
9106;SDS011;4589;48.690;8.952;2023-03-31T13:17:10;4.43;;;1.67;;
9106;SDS011;4589;48.690;8.952;2023-03-31T13:19:38;6.00;;;3.00;;
9106;SDS011;4589;48.690;8.952;2023-03-31T13:22:05;2.60;;;1.20;;
9106;SDS011;4589;48.690;8.952;2023-03-31T13:24:32;3.33;;;1.17;;
9106;SDS011;4589;48.690;8.952;2023-03-31T13:29:54;2.23;;;1.47;;
9106;SDS011;4589;48.690;8.952;2023-03-31T13:32:21;1.20;;;1.00;;
9106;SDS011;4589;48.690;8.952;2023-03-31T13:51:56;1.73;;;0.80;;
9106;SDS011;4589;48.690;8.952;2023-03-31T13:54:32;1.70;;;0.83;;
9106;SDS011;4589;48.690;8.952;2023-03-31T14:02:54;1.13;;;0.80;;
9106;SDS011;4589;48.690;8.952;2023-03-31T14:05:54;2.00;;;1.47;;
9106;SDS011;4589;48.690;8.952;2023-03-31T14:11:16;2.03;;;0.80;;
9106;SDS011;4589;48.690;8.952;2023-03-31T14:14:03;1.00;;;0.80;;
9106;SDS011;4589;48.690;8.952;2023-03-31T14:16:33;1.73;;;1.03;;
9106;SDS011;4589;48.690;8.952;2023-03-31T14:27:01;1.10;;;0.73;;
9106;SDS011;4589;48.690;8.952;2023-03-31T14:34:55;1.57;;;0.80;;
9106;SDS011;4589;48.690;8.952;2023-03-31T14:37:37;0.90;;;0.80;;
9106;SDS011;4589;48.690;8.952;2023-03-31T14:40:03;1.47;;;1.00;;
9106;SDS011;4589;48.690;8.952;2023-03-31T14:42:38;2.50;;;1.00;;
9106;SDS011;4589;48.690;8.952;2023-03-31T14:45:06;1.70;;;0.90;;
9106;SDS011;4589;48.690;8.952;2023-03-31T14:47:53;1.60;;;0.87;;
9106;SDS011;4589;48.690;8.952;2023-03-31T14:50:20;2.13;;;1.30;;
9106;SDS011;4589;48.690;8.952;2023-03-31T14:52:47;3.07;;;2.07;;
9106;SDS011;4589;48.690;8.952;2023-03-31T14:55:15;4.80;;;1.20;;
9106;SDS011;4589;48.690;8.952;2023-03-31T14:57:43;2.93;;;1.30;;
9106;SDS011;4589;48.690;8.952;2023-03-31T15:00:17;2.40;;;0.90;;
9106;SDS011;4589;48.690;8.952;2023-03-31T15:02:49;1.77;;;1.00;;
9106;SDS011;4589;48.690;8.952;2023-03-31T15:05:28;3.07;;;1.30;;
9106;SDS011;4589;48.690;8.952;2023-03-31T15:08:02;1.27;;;1.03;;
9106;SDS011;4589;48.690;8.952;2023-03-31T15:10:37;1.80;;;1.03;;
9106;SDS011;4589;48.690;8.952;2023-03-31T15:13:10;3.20;;;1.50;;
9106;SDS011;4589;48.690;8.952;2023-03-31T15:15:42;2.43;;;1.00;;
9106;SDS011;4589;48.690;8.952;2023-03-31T15:18:14;8.43;;;3.33;;
9106;SDS011;4589;48.690;8.952;2023-03-31T15:20:41;2.30;;;1.50;;
9106;SDS011;4589;48.690;8.952;2023-03-31T15:26:07;8.43;;;1.73;;
9106;SDS011;4589;48.690;8.952;2023-03-31T15:28:37;1.57;;;1.03;;
9106;SDS011;4589;48.690;8.952;2023-03-31T15:31:08;6.00;;;1.37;;
9106;SDS011;4589;48.690;8.952;2023-03-31T15:33:34;1.73;;;1.00;;
9106;SDS011;4589;48.690;8.952;2023-03-31T15:36:05;3.57;;;1.27;;
9106;SDS011;4589;48.690;8.952;2023-03-31T15:38:31;2.00;;;1.00;;
9106;SDS011;4589;48.690;8.952;2023-03-31T15:40:57;2.57;;;1.70;;
9106;SDS011;4589;48.690;8.952;2023-03-31T15:49:17;2.70;;;1.80;;
9106;SDS011;4589;48.690;8.952;2023-03-31T15:51:45;1.27;;;1.03;;
9106;SDS011;4589;48.690;8.952;2023-03-31T15:56:55;3.13;;;1.20;;
9106;SDS011;4589;48.690;8.952;2023-03-31T15:59:25;2.63;;;1.00;;
9106;SDS011;4589;48.690;8.952;2023-03-31T16:01:52;2.00;;;1.37;;
9106;SDS011;4589;48.690;8.952;2023-03-31T16:04:20;3.40;;;1.20;;
9106;SDS011;4589;48.690;8.952;2023-03-31T16:06:51;5.43;;;1.13;;
9106;SDS011;4589;48.690;8.952;2023-03-31T16:09:23;2.50;;;1.27;;
9106;SDS011;4589;48.690;8.952;2023-03-31T16:11:58;2.70;;;1.40;;
9106;SDS011;4589;48.690;8.952;2023-03-31T16:14:36;1.70;;;1.00;;
9106;SDS011;4589;48.690;8.952;2023-03-31T16:17:09;9.00;;;1.30;;
9106;SDS011;4589;48.690;8.952;2023-03-31T16:19:44;1.80;;;1.20;;
9106;SDS011;4589;48.690;8.952;2023-03-31T16:22:17;1.73;;;1.27;;
9106;SDS011;4589;48.690;8.952;2023-03-31T16:24:46;2.67;;;1.13;;
9106;SDS011;4589;48.690;8.952;2023-03-31T16:27:13;1.53;;;1.20;;
9106;SDS011;4589;48.690;8.952;2023-03-31T16:29:40;1.63;;;1.00;;
9106;SDS011;4589;48.690;8.952;2023-03-31T16:32:13;1.40;;;0.90;;
9106;SDS011;4589;48.690;8.952;2023-03-31T16:34:58;1.60;;;1.00;;
9106;SDS011;4589;48.690;8.952;2023-03-31T16:37:26;2.70;;;1.20;;
9106;SDS011;4589;48.690;8.952;2023-03-31T16:39:52;2.37;;;1.10;;
9106;SDS011;4589;48.690;8.952;2023-03-31T16:42:19;1.50;;;1.20;;
9106;SDS011;4589;48.690;8.952;2023-03-31T16:44:45;1.83;;;1.00;;
9106;SDS011;4589;48.690;8.952;2023-03-31T16:47:11;4.10;;;1.27;;
9106;SDS011;4589;48.690;8.952;2023-03-31T16:49:37;2.37;;;0.97;;
9106;SDS011;4589;48.690;8.952;2023-03-31T16:52:04;1.30;;;1.00;;
9106;SDS011;4589;48.690;8.952;2023-03-31T16:54:30;2.70;;;1.17;;
9106;SDS011;4589;48.690;8.952;2023-03-31T16:56:56;2.80;;;1.00;;
9106;SDS011;4589;48.690;8.952;2023-03-31T16:59:22;2.27;;;1.00;;
9106;SDS011;4589;48.690;8.952;2023-03-31T17:01:49;3.60;;;0.97;;
9106;SDS011;4589;48.690;8.952;2023-03-31T17:04:16;2.37;;;1.30;;
9106;SDS011;4589;48.690;8.952;2023-03-31T17:06:42;1.97;;;1.20;;
9106;SDS011;4589;48.690;8.952;2023-03-31T17:09:08;1.40;;;1.03;;
9106;SDS011;4589;48.690;8.952;2023-03-31T17:11:34;1.50;;;0.90;;
9106;SDS011;4589;48.690;8.952;2023-03-31T17:14:00;1.57;;;1.23;;
9106;SDS011;4589;48.690;8.952;2023-03-31T17:16:28;1.40;;;1.10;;
9106;SDS011;4589;48.690;8.952;2023-03-31T17:18:54;2.13;;;1.20;;
9106;SDS011;4589;48.690;8.952;2023-03-31T17:21:20;2.50;;;1.27;;
9106;SDS011;4589;48.690;8.952;2023-03-31T17:23:47;2.07;;;1.20;;
9106;SDS011;4589;48.690;8.952;2023-03-31T17:26:13;2.03;;;1.00;;
9106;SDS011;4589;48.690;8.952;2023-03-31T17:28:40;1.40;;;1.00;;
9106;SDS011;4589;48.690;8.952;2023-03-31T17:31:12;1.83;;;1.30;;
9106;SDS011;4589;48.690;8.952;2023-03-31T17:33:39;1.60;;;1.10;;
9106;SDS011;4589;48.690;8.952;2023-03-31T17:36:05;2.70;;;1.00;;
9106;SDS011;4589;48.690;8.952;2023-03-31T17:38:32;2.50;;;1.00;;
9106;SDS011;4589;48.690;8.952;2023-03-31T17:41:02;3.43;;;1.67;;
9106;SDS011;4589;48.690;8.952;2023-03-31T17:43:32;2.87;;;1.10;;
9106;SDS011;4589;48.690;8.952;2023-03-31T17:46:06;3.13;;;1.30;;
9106;SDS011;4589;48.690;8.952;2023-03-31T17:48:34;2.50;;;1.47;;
9106;SDS011;4589;48.690;8.952;2023-03-31T17:51:07;2.93;;;1.40;;
9106;SDS011;4589;48.690;8.952;2023-03-31T17:53:36;3.33;;;1.40;;
9106;SDS011;4589;48.690;8.952;2023-03-31T17:56:02;5.83;;;1.53;;
9106;SDS011;4589;48.690;8.952;2023-03-31T17:58:28;4.20;;;1.70;;
9106;SDS011;4589;48.690;8.952;2023-03-31T18:00:55;2.53;;;1.57;;
9106;SDS011;4589;48.690;8.952;2023-03-31T18:03:21;2.60;;;1.60;;
9106;SDS011;4589;48.690;8.952;2023-03-31T18:05:47;1.90;;;1.40;;
9106;SDS011;4589;48.690;8.952;2023-03-31T18:08:13;3.00;;;2.43;;
9106;SDS011;4589;48.690;8.952;2023-03-31T18:10:39;5.43;;;2.20;;
9106;SDS011;4589;48.690;8.952;2023-03-31T18:13:06;2.93;;;1.53;;
9106;SDS011;4589;48.690;8.952;2023-03-31T18:15:33;3.53;;;1.80;;
9106;SDS011;4589;48.690;8.952;2023-03-31T18:18:00;2.33;;;1.70;;
9106;SDS011;4589;48.690;8.952;2023-03-31T18:20:25;3.03;;;1.30;;
9106;SDS011;4589;48.690;8.952;2023-03-31T18:22:51;3.17;;;1.63;;
9106;SDS011;4589;48.690;8.952;2023-03-31T18:25:17;1.70;;;1.47;;
9106;SDS011;4589;48.690;8.952;2023-03-31T18:27:43;4.17;;;1.90;;